If you wish to contribute or participate in the discussions about articles you are invited to join SKYbrary as a registered user

 Actions

Tsushima Airport

From SKYbrary Wiki

RJDT
Airport
ICAO: RJDT – IATA: TSJ
Summary
Name Tsushima Airport
Region Asia and Pacific
Territory Japan JP.gif
Location Tsushima, Nagasaki Prefecture
Serving Tsushima
Elevation 63.094 m
207 ft63.094 m
Coordinates 34° 17' 9.25" N, 129° 19' 33.87" E
Runways
Designator Length Width Surface ROPS
14/32 1900 m6,233.596 ft
46 m150.919 ft
ASP /


METAR
Observation RJDT 220800Z 04008KT 360V090 9999 FEW010 BKN/// 17/14 Q1015
Station Tsushima Airport
Date/Time 22 April 2019 08:00:00
Wind direction 40°
Wind speed 08 kts
Lowest cloud amount few clouds
Temperature 17°C
Dew point 14°C
Humidity 82%
QNH 1015 hPa
Weather condition n/a

Tsushima Airport is an airport located 10 km5.4 nm
10,000 m
32,808.399 ft
northeast of Tsushima, a city in the Nagasaki Prefecture of Japan.

Climatology

Humid Sub-tropical climate (Köppen climate classification Cfa)

Maps

Terrain

Loading map...

Airport Layout

Loading map...


Accidents & Serious Incidents at or in vicinity of RJDT

None on SKYbrary